Mystic, Connecticut
Current Conditions -  °F | °C
As of 10:56 PM on Friday 24 Oct 2014 (Local Time) from KGON Reporting Station
Overcast Overcast  
Wind Chill: 50°   Ceiling: 3300
Heat Index: 50°   Visibility: 10mi
Dew Point: 43°   Wind: 8mph
Humidity: 77%   Direction: 290°WNW
Pressure: 29.78"   Gusts: NA
Location:  41.36°N, 71.95°W
Report Text: KGON 250256Z AUTO 29007KT 10SM OVC033 10/06 A2978 RMK AO2 SLP082 T01000061 53005
Loading
Personal Weather Stations






























Interactive Weather Map
Tropical Storm Tracking
New forecast layout! Learn more

10-Day Weather Forecast

Advertisements
Track Severe Weather on mobile